createdAt,value
2018-09-14T00:01:57.853Z,21.67
2018-09-14T00:04:26.571Z,24.70
2018-09-14T00:06:55.432Z,29.80
2018-09-14T00:09:24.349Z,27.27
2018-09-14T00:11:53.009Z,28.97
2018-09-14T00:14:21.915Z,33.20
2018-09-14T00:16:50.674Z,27.70
2018-09-14T00:19:19.368Z,31.07
2018-09-14T00:21:48.053Z,28.30
2018-09-14T00:24:16.730Z,29.17
2018-09-14T00:26:45.450Z,28.30
2018-09-14T00:29:14.150Z,26.73
2018-09-14T00:31:42.810Z,28.43
2018-09-14T00:34:11.478Z,28.63
2018-09-14T00:36:40.223Z,30.63
2018-09-14T00:39:10.263Z,28.60
2018-09-14T00:41:39.494Z,26.20
2018-09-14T00:44:08.210Z,29.83
2018-09-14T00:46:36.853Z,31.07
2018-09-14T00:49:05.949Z,29.97
2018-09-14T00:51:34.686Z,32.27
2018-09-14T00:54:03.901Z,29.40
2018-09-14T00:56:32.859Z,29.90
2018-09-14T00:59:01.506Z,27.73
2018-09-14T01:01:30.173Z,28.93
2018-09-14T01:03:59.161Z,28.73
2018-09-14T01:06:28.152Z,25.87
2018-09-14T01:08:56.935Z,30.17
2018-09-14T01:11:25.930Z,27.93
2018-09-14T01:13:54.737Z,25.23
2018-09-14T01:16:23.810Z,25.03
2018-09-14T01:18:52.545Z,25.33
2018-09-14T01:21:21.242Z,27.13
2018-09-14T01:23:50.371Z,24.23
2018-09-14T01:26:18.993Z,24.70
2018-09-14T01:28:47.901Z,25.93
2018-09-14T01:31:16.573Z,28.80
2018-09-14T01:33:45.555Z,29.10
2018-09-14T01:36:14.306Z,31.07
2018-09-14T01:38:42.990Z,25.77
2018-09-14T01:41:11.813Z,23.87
2018-09-14T01:43:40.875Z,28.30
2018-09-14T01:46:09.728Z,23.77
2018-09-14T01:48:38.347Z,32.17
2018-09-14T01:51:07.042Z,30.70
2018-09-14T01:53:35.791Z,34.33
2018-09-14T01:56:04.525Z,31.53
2018-09-14T01:58:33.239Z,31.23
2018-09-14T02:01:01.947Z,29.27
2018-09-14T02:03:30.787Z,28.63
2018-09-14T02:05:59.445Z,27.87
2018-09-14T02:08:28.153Z,30.43
2018-09-14T02:10:56.816Z,30.37
2018-09-14T02:13:25.494Z,34.40
2018-09-14T02:15:54.233Z,30.57
2018-09-14T02:18:22.890Z,30.93
2018-09-14T02:20:51.582Z,37.23
2018-09-14T02:23:20.257Z,32.63
2018-09-14T02:25:48.960Z,29.93
2018-09-14T02:28:17.671Z,29.23
2018-09-14T02:30:46.396Z,33.03
2018-09-14T02:33:15.197Z,32.40
2018-09-14T02:35:43.901Z,31.20
2018-09-14T02:38:12.941Z,30.97
2018-09-14T02:40:41.622Z,26.43
2018-09-14T02:43:10.417Z,26.10
2018-09-14T02:45:39.115Z,30.20
2018-09-14T02:48:07.927Z,29.00
2018-09-14T02:50:36.608Z,27.97
2018-09-14T02:53:05.683Z,24.80
2018-09-14T02:55:34.404Z,25.33
2018-09-14T02:58:03.364Z,33.40
2018-09-14T03:00:32.022Z,23.47
2018-09-14T03:03:00.771Z,24.73
2018-09-14T03:05:29.464Z,27.10
2018-09-14T03:07:58.151Z,29.40
2018-09-14T03:10:26.856Z,25.80
2018-09-14T03:12:55.587Z,26.67
2018-09-14T03:15:24.252Z,24.63
2018-09-14T03:17:52.980Z,30.47
2018-09-14T03:20:21.659Z,27.20
2018-09-14T03:22:50.369Z,27.40
2018-09-14T03:25:19.036Z,25.23
2018-09-14T03:27:47.775Z,33.83
2018-09-14T03:30:16.555Z,28.13
2018-09-14T03:32:45.300Z,27.37
2018-09-14T03:35:13.956Z,28.13
2018-09-14T03:37:42.703Z,31.13
2018-09-14T03:40:11.531Z,30.47
2018-09-14T03:42:40.309Z,27.67
2018-09-14T03:45:09.028Z,27.27
2018-09-14T03:47:37.758Z,27.57
2018-09-14T03:50:06.540Z,23.90
2018-09-14T03:52:35.275Z,28.50
2018-09-14T03:55:04.008Z,26.63
2018-09-14T03:57:33.629Z,31.47
2018-09-14T04:00:02.353Z,26.27
2018-09-14T04:02:31.119Z,26.07
2018-09-14T04:04:59.817Z,24.63
2018-09-14T04:07:28.571Z,27.07
2018-09-14T04:09:57.798Z,28.67
2018-09-14T04:12:26.487Z,25.40
2018-09-14T04:14:55.203Z,25.17
2018-09-14T04:17:23.860Z,29.17
2018-09-14T04:19:52.597Z,25.17
2018-09-14T04:22:21.316Z,26.13
2018-09-14T04:24:50.065Z,25.90
2018-09-14T04:27:18.773Z,28.50
2018-09-14T04:29:47.453Z,24.73
2018-09-14T04:32:16.285Z,24.57
2018-09-14T04:34:44.948Z,29.27
2018-09-14T04:37:13.644Z,25.20
2018-09-14T04:39:42.430Z,22.80
2018-09-14T04:42:11.111Z,25.60
2018-09-14T04:44:39.868Z,29.83
2018-09-14T04:47:08.854Z,29.57
2018-09-14T04:49:37.636Z,29.13
2018-09-14T04:52:06.365Z,29.23
2018-09-14T04:54:35.118Z,26.77
2018-09-14T04:57:04.206Z,23.97
2018-09-14T04:59:32.904Z,29.40
2018-09-14T05:02:01.576Z,32.70
2018-09-14T05:04:30.398Z,34.93
2018-09-14T05:06:59.071Z,42.87
2018-09-14T05:09:27.815Z,35.57
2018-09-14T05:11:56.521Z,37.50
2018-09-14T05:14:25.752Z,39.60
2018-09-14T05:16:54.724Z,35.57
2018-09-14T05:19:23.420Z,35.00
2018-09-14T05:21:52.112Z,36.13
2018-09-14T05:24:21.053Z,39.60
2018-09-14T05:26:49.784Z,38.17
2018-09-14T05:29:18.642Z,31.43
2018-09-14T05:31:47.307Z,34.30
2018-09-14T05:34:16.113Z,32.73
2018-09-14T05:36:45.173Z,33.43
2018-09-14T05:39:13.924Z,32.73
2018-09-14T05:41:42.986Z,34.50
2018-09-14T05:44:11.777Z,28.33
2018-09-14T05:46:40.505Z,29.93
2018-09-14T05:49:09.396Z,26.60
2018-09-14T05:51:38.074Z,29.90
2018-09-14T05:54:06.880Z,29.87
2018-09-14T05:56:35.584Z,28.87
2018-09-14T05:59:04.312Z,25.23
2018-09-14T06:01:33.356Z,30.33
2018-09-14T06:04:02.072Z,26.70
2018-09-14T06:06:31.270Z,29.40
2018-09-14T06:09:00.561Z,25.33
2018-09-14T06:11:29.269Z,21.60
2018-09-14T06:13:57.951Z,20.37
2018-09-14T06:16:26.693Z,21.00
2018-09-14T06:18:55.426Z,18.47
2018-09-14T06:21:24.171Z,19.30
2018-09-14T06:23:53.467Z,19.83
2018-09-14T06:26:22.381Z,19.70
2018-09-14T06:28:51.092Z,25.00
2018-09-14T06:31:19.789Z,27.13
2018-09-14T06:33:48.512Z,30.37
2018-09-14T06:36:17.157Z,37.87
2018-09-14T06:38:45.908Z,31.80
2018-09-14T06:41:14.393Z,28.47
2018-09-14T06:43:42.915Z,34.33
2018-09-14T06:46:12.764Z,25.57
2018-09-14T06:48:41.303Z,30.77
2018-09-14T06:51:10.556Z,29.60
2018-09-14T06:53:39.009Z,29.60
2018-09-14T06:56:07.452Z,26.63
2018-09-14T06:58:36.136Z,27.93
2018-09-14T07:01:04.812Z,26.43
2018-09-14T07:03:33.582Z,23.43
2018-09-14T07:06:02.332Z,25.43
2018-09-14T07:08:31.098Z,24.23
2018-09-14T07:11:00.396Z,23.20
2018-09-14T07:13:29.161Z,23.40
2018-09-14T07:15:59.618Z,25.57
2018-09-14T07:18:30.567Z,24.63
2018-09-14T07:21:01.500Z,23.80
2018-09-14T07:23:30.374Z,22.83
2018-09-14T07:25:59.098Z,23.70
2018-09-14T07:28:28.001Z,26.60
2018-09-14T07:30:56.741Z,26.13
2018-09-14T07:33:25.453Z,25.87
2018-09-14T07:35:54.146Z,30.00
2018-09-14T07:38:22.948Z,27.40
2018-09-14T07:40:51.692Z,27.00
2018-09-14T07:43:20.390Z,25.47
2018-09-14T07:45:49.345Z,28.63
2018-09-14T07:48:18.106Z,27.60
2018-09-14T07:50:46.976Z,25.40
2018-09-14T07:53:15.628Z,32.07
2018-09-14T07:55:44.348Z,34.23
2018-09-14T07:58:13.096Z,31.00
2018-09-14T08:00:41.990Z,32.03
2018-09-14T08:03:10.792Z,30.90
2018-09-14T08:05:39.414Z,32.37
2018-09-14T08:08:08.109Z,30.50
2018-09-14T08:10:37.068Z,31.70
2018-09-14T08:13:06.679Z,36.43
2018-09-14T08:15:35.592Z,35.87
2018-09-14T08:18:04.295Z,36.10
2018-09-14T08:20:33.252Z,32.87
2018-09-14T08:23:02.398Z,34.63
2018-09-14T08:25:34.809Z,41.53
2018-09-14T08:28:09.435Z,32.87
2018-09-14T08:30:38.183Z,36.27
2018-09-14T08:33:06.874Z,33.70
2018-09-14T08:35:35.698Z,35.03
2018-09-14T08:38:04.564Z,35.70
2018-09-14T08:40:37.140Z,39.80
2018-09-14T08:43:05.927Z,35.77
2018-09-14T08:45:34.660Z,39.00
2018-09-14T08:48:03.444Z,35.63
2018-09-14T08:50:32.155Z,39.30
2018-09-14T08:53:00.851Z,34.77
2018-09-14T08:55:29.657Z,36.60
2018-09-14T08:57:58.913Z,35.23
2018-09-14T09:00:27.636Z,33.90
2018-09-14T09:02:57.461Z,34.47
2018-09-14T09:05:26.812Z,37.97
2018-09-14T09:07:55.551Z,41.00
2018-09-14T09:10:24.359Z,39.43
2018-09-14T09:12:53.049Z,38.93
2018-09-14T09:15:21.737Z,38.27
2018-09-14T09:17:50.517Z,41.43
2018-09-14T09:20:19.156Z,42.93
2018-09-14T09:22:47.876Z,31.70
2018-09-14T09:25:16.640Z,32.87
2018-09-14T09:27:45.539Z,34.20
2018-09-14T09:30:14.849Z,30.83
2018-09-14T09:32:43.592Z,29.33
2018-09-14T09:35:12.493Z,29.53
2018-09-14T09:37:41.279Z,27.53
2018-09-14T09:40:10.186Z,25.60
2018-09-14T09:42:39.261Z,29.23
2018-09-14T09:45:07.990Z,30.37
2018-09-14T09:47:36.904Z,28.70
2018-09-14T09:50:06.809Z,27.80
2018-09-14T09:52:37.493Z,27.00
2018-09-14T09:55:09.299Z,25.30
2018-09-14T09:57:42.368Z,24.17
2018-09-14T10:00:25.036Z,24.57
2018-09-14T10:03:02.273Z,29.13
2018-09-14T10:05:38.810Z,27.47
2018-09-14T10:08:09.231Z,23.57
2018-09-14T10:10:38.890Z,24.27
2018-09-14T10:13:09.618Z,22.07
2018-09-14T10:15:39.828Z,22.90
2018-09-14T10:18:09.907Z,19.33
2018-09-14T10:20:39.947Z,21.13
2018-09-14T10:23:09.432Z,21.23
2018-09-14T10:25:38.424Z,21.93
2018-09-14T10:28:15.082Z,21.57
2018-09-14T10:30:44.040Z,21.67
2018-09-14T10:33:12.680Z,16.83
2018-09-14T10:35:41.414Z,21.30
2018-09-14T10:38:10.192Z,19.77
2018-09-14T10:40:39.187Z,22.77
2018-09-14T10:43:08.206Z,20.37
2018-09-14T10:45:37.223Z,22.60
2018-09-14T10:48:07.782Z,22.27
2018-09-14T10:50:36.472Z,21.93
2018-09-14T10:53:05.247Z,20.40
2018-09-14T10:55:34.295Z,22.50
2018-09-14T10:58:03.013Z,20.43
2018-09-14T11:00:32.042Z,19.53
2018-09-14T11:03:00.769Z,23.03
2018-09-14T11:05:29.543Z,23.43
2018-09-14T11:07:58.246Z,20.37
2018-09-14T11:10:27.339Z,20.87
2018-09-14T11:12:56.077Z,18.07
2018-09-14T11:15:24.800Z,19.20
2018-09-14T11:17:53.819Z,20.87
2018-09-14T11:20:22.560Z,20.97
2018-09-14T11:22:51.295Z,21.60
2018-09-14T11:25:20.084Z,19.93
2018-09-14T11:27:48.985Z,20.20
2018-09-14T11:30:17.680Z,16.50
2018-09-14T11:32:46.448Z,15.97
2018-09-14T11:35:15.413Z,16.57
2018-09-14T11:37:44.203Z,16.63
2018-09-14T11:40:12.925Z,17.50
2018-09-14T11:42:41.689Z,19.30
2018-09-14T11:45:10.448Z,17.23
2018-09-14T11:47:39.179Z,14.67
2018-09-14T11:50:09.545Z,15.97
2018-09-14T11:52:38.563Z,14.63
2018-09-14T11:55:07.600Z,15.13
2018-09-14T11:57:36.357Z,17.93
2018-09-14T12:00:05.145Z,12.60
2018-09-14T12:02:34.131Z,16.13
2018-09-14T12:05:02.795Z,13.40
2018-09-14T12:07:36.268Z,15.00
2018-09-14T12:10:05.368Z,16.50
2018-09-14T12:12:34.403Z,13.67
2018-09-14T12:15:03.188Z,11.63
2018-09-14T12:17:32.655Z,11.40
2018-09-14T12:20:01.476Z,11.80
2018-09-14T12:22:31.474Z,12.37
2018-09-14T12:25:00.369Z,12.60
2018-09-14T12:27:29.099Z,14.73
2018-09-14T12:29:57.813Z,13.57
2018-09-14T12:32:26.552Z,15.90
2018-09-14T12:34:55.416Z,11.33
2018-09-14T12:37:24.119Z,11.47
2018-09-14T12:39:53.089Z,11.30
2018-09-14T12:42:22.510Z,11.23
2018-09-14T12:44:51.898Z,12.53
2018-09-14T12:47:20.723Z,11.10
2018-09-14T12:49:49.509Z,14.67
2018-09-14T12:52:18.256Z,12.87
2018-09-14T12:54:48.284Z,12.13
2018-09-14T12:57:17.073Z,12.57
2018-09-14T12:59:47.907Z,11.53
2018-09-14T13:02:16.728Z,13.53
2018-09-14T13:04:45.398Z,10.90
2018-09-14T13:07:14.033Z,8.47
2018-09-14T13:09:49.128Z,10.17
2018-09-14T13:12:17.877Z,9.53
2018-09-14T13:14:46.628Z,8.83
2018-09-14T13:17:15.281Z,8.97
2018-09-14T13:19:44.010Z,9.77
2018-09-14T13:22:12.853Z,9.73
2018-09-14T13:24:41.564Z,9.83
2018-09-14T13:27:10.997Z,10.20
2018-09-14T13:29:39.776Z,10.23
2018-09-14T13:32:09.039Z,10.03
2018-09-14T13:34:37.772Z,9.53
2018-09-14T13:37:06.480Z,9.80
2018-09-14T13:39:35.188Z,9.13
2018-09-14T13:42:03.907Z,9.60
2018-09-14T13:44:32.633Z,9.37
2018-09-14T13:47:01.298Z,7.77
2018-09-14T13:49:36.663Z,11.37
2018-09-14T13:52:05.352Z,8.63
2018-09-14T13:54:34.100Z,8.70
2018-09-14T13:57:02.791Z,7.47
2018-09-14T13:59:31.520Z,7.70
2018-09-14T14:02:01.277Z,8.40
2018-09-14T14:04:29.998Z,9.40
2018-09-14T14:07:00.029Z,7.97
2018-09-14T14:09:28.743Z,8.67
2018-09-14T14:11:57.457Z,9.63
2018-09-14T14:14:45.316Z,8.10
2018-09-14T14:17:14.082Z,8.37
2018-09-14T14:19:42.650Z,7.47
2018-09-14T14:22:11.322Z,8.83
2018-09-14T14:24:40.468Z,7.97
2018-09-14T14:27:09.172Z,8.10
2018-09-14T14:29:38.702Z,6.30
2018-09-14T14:32:07.633Z,5.30
2018-09-14T14:34:36.328Z,6.03
2018-09-14T14:37:05.161Z,4.97
2018-09-14T14:39:34.128Z,4.83
2018-09-14T14:42:02.908Z,6.20
2018-09-14T14:44:31.588Z,7.10
2018-09-14T14:47:00.507Z,4.83
2018-09-14T14:49:29.736Z,5.77
2018-09-14T14:52:00.357Z,5.57
2018-09-14T14:54:30.146Z,8.07
2018-09-14T14:56:58.879Z,5.23
2018-09-14T14:59:27.648Z,5.63
2018-09-14T15:01:57.041Z,4.73
2018-09-14T15:04:26.816Z,4.13
2018-09-14T15:06:57.672Z,3.90
2018-09-14T15:09:26.484Z,4.13
2018-09-14T15:12:07.457Z,3.93
2018-09-14T15:14:36.160Z,4.20
2018-09-14T15:17:04.906Z,3.77
2018-09-14T15:19:33.644Z,3.27
2018-09-14T15:22:02.429Z,2.90
2018-09-14T15:24:31.133Z,2.43
2018-09-14T15:26:59.808Z,2.90
2018-09-14T15:29:30.609Z,3.00
2018-09-14T15:32:00.368Z,2.83
2018-09-14T15:34:29.415Z,2.80
2018-09-14T15:36:58.181Z,2.73
2018-09-14T15:39:27.167Z,2.90
2018-09-14T15:41:55.892Z,2.70
2018-09-14T15:44:24.508Z,2.83
2018-09-14T15:46:53.186Z,2.90
2018-09-14T15:49:22.190Z,2.80
2018-09-14T15:51:51.562Z,2.70
2018-09-14T15:54:20.509Z,2.80
2018-09-14T15:56:49.453Z,2.60
2018-09-14T15:59:18.509Z,3.20
2018-09-14T16:01:47.395Z,2.67
2018-09-14T16:04:16.092Z,2.73
2018-09-14T16:06:44.760Z,2.93
2018-09-14T16:09:13.502Z,2.90
2018-09-14T16:11:42.336Z,2.90
2018-09-14T16:14:11.036Z,2.50
2018-09-14T16:16:39.822Z,2.80
2018-09-14T16:19:08.528Z,2.70
2018-09-14T16:21:37.231Z,3.30
2018-09-14T16:24:05.980Z,2.93
2018-09-14T16:26:35.044Z,4.97
2018-09-14T16:29:03.768Z,3.33
2018-09-14T16:31:32.486Z,2.73
2018-09-14T16:34:01.193Z,3.03
2018-09-14T16:36:29.872Z,2.90
2018-09-14T16:38:58.656Z,3.23
2018-09-14T16:41:27.407Z,2.90
2018-09-14T16:43:56.102Z,2.60
2018-09-14T16:46:24.756Z,2.83
2018-09-14T16:48:53.471Z,3.03
2018-09-14T16:51:22.457Z,3.23
2018-09-14T16:53:51.159Z,3.40
2018-09-14T16:56:19.854Z,2.80
2018-09-14T16:58:48.668Z,3.10
2018-09-14T17:01:17.395Z,2.60
2018-09-14T17:03:46.116Z,2.80
2018-09-14T17:06:14.784Z,3.47
2018-09-14T17:08:44.410Z,3.53
2018-09-14T17:11:13.137Z,3.37
2018-09-14T17:13:41.856Z,5.17
2018-09-14T17:16:10.520Z,3.23
2018-09-14T17:18:39.481Z,4.00
2018-09-14T17:21:08.206Z,3.30
2018-09-14T17:23:36.950Z,3.00
2018-09-14T17:26:05.942Z,3.50
2018-09-14T17:28:34.704Z,3.03
2018-09-14T17:31:03.520Z,6.97
2018-09-14T17:33:32.234Z,4.20
2018-09-14T17:36:02.310Z,4.40
2018-09-14T17:38:31.063Z,4.30
2018-09-14T17:40:59.785Z,3.87
2018-09-14T17:43:28.504Z,5.87
2018-09-14T17:45:57.189Z,4.20
2018-09-14T17:48:25.925Z,7.80
2018-09-14T17:50:54.671Z,4.37
2018-09-14T17:53:23.376Z,5.23
2018-09-14T17:55:52.039Z,4.60
2018-09-14T17:58:20.791Z,4.97
2018-09-14T18:00:49.872Z,4.97
2018-09-14T18:03:18.648Z,5.00
2018-09-14T18:05:47.351Z,4.40
2018-09-14T18:08:16.007Z,7.27
2018-09-14T18:10:45.042Z,4.27
2018-09-14T18:13:13.729Z,4.77
2018-09-14T18:15:42.408Z,4.47
2018-09-14T18:18:11.114Z,4.47
2018-09-14T18:20:39.816Z,5.13
2018-09-14T18:23:08.493Z,4.73
2018-09-14T18:25:37.227Z,6.53
2018-09-14T18:28:06.107Z,5.57
2018-09-14T18:30:34.773Z,5.30
2018-09-14T18:33:03.565Z,6.33
2018-09-14T18:35:32.647Z,5.70
2018-09-14T18:38:01.380Z,5.17
2018-09-14T18:40:30.141Z,6.00
2018-09-14T18:42:58.817Z,5.60
2018-09-14T18:45:27.534Z,5.20
2018-09-14T18:47:56.201Z,6.93
2018-09-14T18:50:25.002Z,5.50
2018-09-14T18:52:53.717Z,6.57
2018-09-14T18:55:22.505Z,6.40
2018-09-14T18:57:52.184Z,5.57
2018-09-14T19:00:20.900Z,6.13
2018-09-14T19:02:49.569Z,5.87
2018-09-14T19:05:18.612Z,6.23
2018-09-14T19:07:47.216Z,5.77
2018-09-14T19:10:18.730Z,6.80
2018-09-14T19:12:48.476Z,7.60
2018-09-14T19:15:18.488Z,6.70
2018-09-14T19:17:47.222Z,6.67
2018-09-14T19:20:15.933Z,6.43
2018-09-14T19:22:45.788Z,6.93
2018-09-14T19:25:14.804Z,6.17
2018-09-14T19:27:43.568Z,6.40
2018-09-14T19:30:12.647Z,6.50
2018-09-14T19:32:41.399Z,6.63
2018-09-14T19:35:10.609Z,8.00
2018-09-14T19:37:39.773Z,7.30
2018-09-14T19:40:08.447Z,7.83
2018-09-14T19:42:37.272Z,8.93
2018-09-14T19:45:06.504Z,7.10
2018-09-14T19:47:35.691Z,7.20
2018-09-14T19:50:04.795Z,8.13
2018-09-14T19:52:33.488Z,7.83
2018-09-14T19:55:02.392Z,7.00
2018-09-14T19:57:31.953Z,7.70
2018-09-14T20:00:02.139Z,9.30
2018-09-14T20:02:31.073Z,7.97
2018-09-14T20:05:00.161Z,7.07
2018-09-14T20:07:28.976Z,7.43
2018-09-14T20:09:58.110Z,7.30
2018-09-14T20:12:27.351Z,10.37
2018-09-14T20:14:56.201Z,7.50
2018-09-14T20:17:25.003Z,7.07
2018-09-14T20:19:53.703Z,6.67
2018-09-14T20:22:22.715Z,7.50
2018-09-14T20:24:51.606Z,8.07
2018-09-14T20:27:20.464Z,8.57
2018-09-14T20:29:49.209Z,12.63
2018-09-14T20:32:17.887Z,8.10
2018-09-14T20:34:46.600Z,8.63
2018-09-14T20:37:23.108Z,9.53
2018-09-14T20:39:51.744Z,12.90
2018-09-14T20:42:20.450Z,9.53
2018-09-14T20:44:50.320Z,8.90
2018-09-14T20:47:19.614Z,8.47
2018-09-14T20:49:49.060Z,11.87
2018-09-14T20:52:18.263Z,8.67
2018-09-14T20:54:47.944Z,7.47
2018-09-14T20:57:16.698Z,7.53
2018-09-14T20:59:45.692Z,7.43
2018-09-14T21:02:15.435Z,7.30
2018-09-14T21:04:44.079Z,8.03
2018-09-14T21:07:13.852Z,7.80
2018-09-14T21:09:42.840Z,7.77
2018-09-14T21:12:11.782Z,6.63
2018-09-14T21:14:40.658Z,8.20
2018-09-14T21:17:09.659Z,7.40
2018-09-14T21:19:38.428Z,6.67
2018-09-14T21:22:07.227Z,6.80
2018-09-14T21:24:36.188Z,7.07
2018-09-14T21:27:04.940Z,7.80
2018-09-14T21:29:33.892Z,8.30
2018-09-14T21:32:03.702Z,7.83
2018-09-14T21:34:33.304Z,8.33
2018-09-14T21:37:02.093Z,8.07
2018-09-14T21:39:31.005Z,7.77
2018-09-14T21:41:59.698Z,9.07
2018-09-14T21:44:31.209Z,9.40
2018-09-14T21:47:02.917Z,8.20
2018-09-14T21:49:31.654Z,7.73
2018-09-14T21:52:00.362Z,7.90
2018-09-14T21:54:29.130Z,7.63
2018-09-14T21:56:57.843Z,7.77
2018-09-14T21:59:26.554Z,8.33
2018-09-14T22:01:55.283Z,8.77
2018-09-14T22:04:23.993Z,7.90
2018-09-14T22:06:52.662Z,7.37
2018-09-14T22:09:21.520Z,7.27
2018-09-14T22:11:50.260Z,13.07
2018-09-14T22:14:18.942Z,10.07
2018-09-14T22:16:47.776Z,8.47
2018-09-14T22:19:16.437Z,8.30
2018-09-14T22:21:45.312Z,7.43
2018-09-14T22:24:13.975Z,7.53
2018-09-14T22:26:42.672Z,8.40
2018-09-14T22:29:11.411Z,11.67
2018-09-14T22:31:40.101Z,8.30
2018-09-14T22:34:08.794Z,8.13
2018-09-14T22:36:37.605Z,7.73
2018-09-14T22:39:08.421Z,7.37
2018-09-14T22:41:37.164Z,10.87
2018-09-14T22:44:05.900Z,8.00
2018-09-14T22:46:34.674Z,6.93
2018-09-14T22:49:03.606Z,7.17
2018-09-14T22:51:32.391Z,8.00
2018-09-14T22:54:01.061Z,8.03
2018-09-14T22:56:29.767Z,7.73
2018-09-14T22:58:58.416Z,8.17
2018-09-14T23:01:27.120Z,8.00
2018-09-14T23:03:55.767Z,7.57
2018-09-14T23:06:24.481Z,7.97
2018-09-14T23:08:53.168Z,8.30
2018-09-14T23:11:21.883Z,7.80
2018-09-14T23:13:50.607Z,9.77
2018-09-14T23:16:19.303Z,7.73
2018-09-14T23:18:47.986Z,7.53
2018-09-14T23:21:16.683Z,7.80
2018-09-14T23:23:45.373Z,7.53
2018-09-14T23:26:17.320Z,8.27
2018-09-14T23:28:46.056Z,6.30
2018-09-14T23:31:14.843Z,7.80
2018-09-14T23:33:43.494Z,8.33
2018-09-14T23:36:12.176Z,8.00
2018-09-14T23:38:41.052Z,7.57
2018-09-14T23:41:09.787Z,8.70
2018-09-14T23:43:38.444Z,7.87
2018-09-14T23:46:10.033Z,9.10
2018-09-14T23:48:39.700Z,8.23
2018-09-14T23:51:08.773Z,9.13
2018-09-14T23:53:37.432Z,6.87
2018-09-14T23:56:06.413Z,6.80
2018-09-14T23:58:35.125Z,6.30
